sensor_id;sensor_type;location;lat;lon;timestamp;pressure;altitude;pressure_sealevel;temperature;humidity
24390;BME280;12510;56.468;-3.004;2023-03-04T00:02:03;102187.78;;;14.93;50.89
24390;BME280;12510;56.468;-3.004;2023-03-04T00:04:30;102191.94;;;15.28;50.57
24390;BME280;12510;56.468;-3.004;2023-03-04T00:06:57;102190.41;;;15.04;50.81
24390;BME280;12510;56.468;-3.004;2023-03-04T00:09:23;102186.56;;;14.42;52.16
24390;BME280;12510;56.468;-3.004;2023-03-04T00:11:49;102200.09;;;13.82;53.46
24390;BME280;12510;56.468;-3.004;2023-03-04T00:14:16;102194.44;;;13.87;53.85
24390;BME280;12510;56.468;-3.004;2023-03-04T00:16:42;102192.22;;;14.49;52.67
24390;BME280;12510;56.468;-3.004;2023-03-04T00:19:09;102195.41;;;14.20;52.68
24390;BME280;12510;56.468;-3.004;2023-03-04T00:21:36;102196.84;;;14.13;52.91
24390;BME280;12510;56.468;-3.004;2023-03-04T00:24:02;102194.56;;;14.08;53.32
24390;BME280;12510;56.468;-3.004;2023-03-04T00:26:29;102195.91;;;14.14;53.29
24390;BME280;12510;56.468;-3.004;2023-03-04T00:28:55;102186.75;;;13.95;53.65
24390;BME280;12510;56.468;-3.004;2023-03-04T00:31:22;102184.97;;;14.73;51.85
24390;BME280;12510;56.468;-3.004;2023-03-04T00:33:48;102180.28;;;14.66;51.47
24390;BME280;12510;56.468;-3.004;2023-03-04T00:36:15;102176.94;;;14.41;51.26
24390;BME280;12510;56.468;-3.004;2023-03-04T00:38:41;102186.44;;;14.66;51.63
24390;BME280;12510;56.468;-3.004;2023-03-04T00:41:08;102191.75;;;14.44;51.56
24390;BME280;12510;56.468;-3.004;2023-03-04T00:43:34;102176.72;;;14.44;51.55
24390;BME280;12510;56.468;-3.004;2023-03-04T00:46:01;102184.97;;;14.62;50.93
24390;BME280;12510;56.468;-3.004;2023-03-04T00:48:29;102186.69;;;14.63;50.62
24390;BME280;12510;56.468;-3.004;2023-03-04T00:50:55;102186.75;;;14.73;50.96
24390;BME280;12510;56.468;-3.004;2023-03-04T00:53:22;102180.91;;;14.47;51.29
24390;BME280;12510;56.468;-3.004;2023-03-04T00:55:49;102186.28;;;14.79;50.98
24390;BME280;12510;56.468;-3.004;2023-03-04T00:58:16;102177.84;;;14.74;51.03
24390;BME280;12510;56.468;-3.004;2023-03-04T01:00:42;102179.16;;;14.13;52.84
24390;BME280;12510;56.468;-3.004;2023-03-04T01:03:08;102182.88;;;13.99;53.43
24390;BME280;12510;56.468;-3.004;2023-03-04T01:05:35;102179.53;;;14.20;53.10
24390;BME280;12510;56.468;-3.004;2023-03-04T01:08:02;102183.13;;;14.07;53.16
24390;BME280;12510;56.468;-3.004;2023-03-04T01:10:29;102180.00;;;14.14;53.36
24390;BME280;12510;56.468;-3.004;2023-03-04T01:12:55;102180.59;;;13.83;53.62
24390;BME280;12510;56.468;-3.004;2023-03-04T01:15:22;102184.94;;;13.73;54.14
24390;BME280;12510;56.468;-3.004;2023-03-04T01:17:49;102182.16;;;13.63;54.65
24390;BME280;12510;56.468;-3.004;2023-03-04T01:20:16;102181.34;;;14.08;53.58
24390;BME280;12510;56.468;-3.004;2023-03-04T01:22:42;102172.97;;;14.35;52.56
24390;BME280;12510;56.468;-3.004;2023-03-04T01:25:09;102168.72;;;14.55;52.13
24390;BME280;12510;56.468;-3.004;2023-03-04T01:27:36;102166.81;;;14.90;50.90
24390;BME280;12510;56.468;-3.004;2023-03-04T01:30:03;102171.03;;;14.49;51.70
24390;BME280;12510;56.468;-3.004;2023-03-04T01:32:30;102170.00;;;14.61;51.32
24390;BME280;12510;56.468;-3.004;2023-03-04T01:34:56;102166.91;;;14.67;51.50
24390;BME280;12510;56.468;-3.004;2023-03-04T01:37:22;102159.78;;;14.68;51.14
24390;BME280;12510;56.468;-3.004;2023-03-04T01:39:49;102160.44;;;14.93;50.46
24390;BME280;12510;56.468;-3.004;2023-03-04T01:42:20;102156.91;;;14.92;50.33
24390;BME280;12510;56.468;-3.004;2023-03-04T01:44:48;102149.56;;;14.96;49.95
24390;BME280;12510;56.468;-3.004;2023-03-04T01:47:15;102153.69;;;15.09;49.96
24390;BME280;12510;56.468;-3.004;2023-03-04T01:49:42;102152.94;;;14.98;49.83
24390;BME280;12510;56.468;-3.004;2023-03-04T01:52:12;102150.94;;;14.79;50.23
24390;BME280;12510;56.468;-3.004;2023-03-04T01:54:39;102146.91;;;14.96;49.95
24390;BME280;12510;56.468;-3.004;2023-03-04T01:57:15;102142.75;;;14.82;50.37
24390;BME280;12510;56.468;-3.004;2023-03-04T01:59:42;102143.97;;;14.78;50.39
24390;BME280;12510;56.468;-3.004;2023-03-04T02:02:09;102135.50;;;14.84;50.03
24390;BME280;12510;56.468;-3.004;2023-03-04T02:04:36;102133.03;;;14.92;49.73
24390;BME280;12510;56.468;-3.004;2023-03-04T02:07:03;102125.94;;;14.93;50.12
24390;BME280;12510;56.468;-3.004;2023-03-04T02:09:32;102136.78;;;14.57;50.70
24390;BME280;12510;56.468;-3.004;2023-03-04T02:11:59;102128.28;;;14.42;50.77
24390;BME280;12510;56.468;-3.004;2023-03-04T02:14:26;102120.72;;;14.37;50.97
24390;BME280;12510;56.468;-3.004;2023-03-04T02:16:52;102117.16;;;14.04;51.42
24390;BME280;12510;56.468;-3.004;2023-03-04T02:22:01;102125.53;;;13.30;53.62
24390;BME280;12510;56.468;-3.004;2023-03-04T02:24:39;102119.06;;;12.99;54.33
24390;BME280;12510;56.468;-3.004;2023-03-04T02:27:06;102120.94;;;13.21;54.30
24390;BME280;12510;56.468;-3.004;2023-03-04T02:29:33;102115.72;;;12.72;54.16
24390;BME280;12510;56.468;-3.004;2023-03-04T02:32:00;102133.13;;;12.02;58.14
24390;BME280;12510;56.468;-3.004;2023-03-04T02:34:32;102137.28;;;11.55;62.08
24390;BME280;12510;56.468;-3.004;2023-03-04T02:37:00;102133.47;;;11.33;63.83
24390;BME280;12510;56.468;-3.004;2023-03-04T02:39:34;102133.88;;;11.27;64.84
24390;BME280;12510;56.468;-3.004;2023-03-04T02:42:02;102125.09;;;11.14;65.76
24390;BME280;12510;56.468;-3.004;2023-03-04T02:44:33;102125.88;;;11.42;64.36
24390;BME280;12510;56.468;-3.004;2023-03-04T02:47:01;102116.69;;;11.60;62.61
24390;BME280;12510;56.468;-3.004;2023-03-04T02:49:29;102113.31;;;12.21;59.50
24390;BME280;12510;56.468;-3.004;2023-03-04T02:52:08;102106.63;;;12.52;56.53
24390;BME280;12510;56.468;-3.004;2023-03-04T02:54:36;102105.13;;;12.37;55.92
24390;BME280;12510;56.468;-3.004;2023-03-04T02:57:06;102106.94;;;11.99;56.63
24390;BME280;12510;56.468;-3.004;2023-03-04T02:59:37;102109.69;;;11.85;57.33
24390;BME280;12510;56.468;-3.004;2023-03-04T03:02:05;102121.22;;;11.45;60.50
24390;BME280;12510;56.468;-3.004;2023-03-04T03:04:34;102127.91;;;10.98;62.38
24390;BME280;12510;56.468;-3.004;2023-03-04T03:07:02;102123.84;;;11.06;61.45
24390;BME280;12510;56.468;-3.004;2023-03-04T03:09:29;102117.09;;;11.02;61.57
24390;BME280;12510;56.468;-3.004;2023-03-04T03:11:56;102120.91;;;11.50;61.27
24390;BME280;12510;56.468;-3.004;2023-03-04T03:14:22;102120.13;;;10.96;60.02
24390;BME280;12510;56.468;-3.004;2023-03-04T03:16:49;102109.56;;;10.96;59.76
24390;BME280;12510;56.468;-3.004;2023-03-04T03:19:15;102112.31;;;10.95;59.19
24390;BME280;12510;56.468;-3.004;2023-03-04T03:21:42;102110.56;;;11.34;59.07
24390;BME280;12510;56.468;-3.004;2023-03-04T03:24:10;102109.09;;;11.43;58.00
24390;BME280;12510;56.468;-3.004;2023-03-04T03:26:36;102115.00;;;11.33;60.57
24390;BME280;12510;56.468;-3.004;2023-03-04T03:29:05;102115.75;;;11.22;60.86
24390;BME280;12510;56.468;-3.004;2023-03-04T03:31:31;102115.94;;;11.19;60.05
24390;BME280;12510;56.468;-3.004;2023-03-04T03:33:57;102110.41;;;12.13;58.62
24390;BME280;12510;56.468;-3.004;2023-03-04T03:36:24;102107.88;;;11.98;58.41
24390;BME280;12510;56.468;-3.004;2023-03-04T03:38:50;102100.47;;;11.90;58.63
24390;BME280;12510;56.468;-3.004;2023-03-04T03:41:17;102095.22;;;12.03;57.95
24390;BME280;12510;56.468;-3.004;2023-03-04T03:43:43;102106.25;;;11.46;59.26
24390;BME280;12510;56.468;-3.004;2023-03-04T03:46:09;102102.88;;;11.56;59.99
24390;BME280;12510;56.468;-3.004;2023-03-04T03:48:36;102104.34;;;11.73;59.82
24390;BME280;12510;56.468;-3.004;2023-03-04T03:51:02;102090.56;;;12.07;58.61
24390;BME280;12510;56.468;-3.004;2023-03-04T03:53:29;102094.59;;;11.74;59.69
24390;BME280;12510;56.468;-3.004;2023-03-04T03:55:55;102088.13;;;12.04;58.45
24390;BME280;12510;56.468;-3.004;2023-03-04T03:58:21;102097.47;;;11.58;60.16
24390;BME280;12510;56.468;-3.004;2023-03-04T04:00:48;102082.34;;;11.86;58.75
24390;BME280;12510;56.468;-3.004;2023-03-04T04:03:15;102072.06;;;12.07;58.21
24390;BME280;12510;56.468;-3.004;2023-03-04T04:05:42;102066.44;;;12.12;57.81
24390;BME280;12510;56.468;-3.004;2023-03-04T04:08:13;102067.19;;;12.38;57.17
24390;BME280;12510;56.468;-3.004;2023-03-04T04:10:41;102065.63;;;11.85;58.32
24390;BME280;12510;56.468;-3.004;2023-03-04T04:13:08;102063.38;;;12.42;56.60
24390;BME280;12510;56.468;-3.004;2023-03-04T04:15:34;102062.78;;;12.26;56.51
24390;BME280;12510;56.468;-3.004;2023-03-04T04:18:01;102059.66;;;11.96;56.79
24390;BME280;12510;56.468;-3.004;2023-03-04T04:20:28;102056.91;;;11.98;56.49
24390;BME280;12510;56.468;-3.004;2023-03-04T04:22:54;102060.50;;;12.21;56.20
24390;BME280;12510;56.468;-3.004;2023-03-04T04:25:21;102063.97;;;11.97;56.85
24390;BME280;12510;56.468;-3.004;2023-03-04T04:27:48;102071.13;;;12.56;55.37
24390;BME280;12510;56.468;-3.004;2023-03-04T04:30:14;102067.84;;;12.88;55.27
24390;BME280;12510;56.468;-3.004;2023-03-04T04:32:41;102033.81;;;16.46;46.80
24390;BME280;12510;56.468;-3.004;2023-03-04T04:35:07;102018.66;;;17.61;43.22
24390;BME280;12510;56.468;-3.004;2023-03-04T04:37:34;102004.91;;;17.00;42.58
24390;BME280;12510;56.468;-3.004;2023-03-04T04:40:01;102028.56;;;13.86;46.26
24390;BME280;12510;56.468;-3.004;2023-03-04T04:42:27;102035.91;;;11.83;53.50
24390;BME280;12510;56.468;-3.004;2023-03-04T04:44:54;102037.13;;;12.03;54.76
24390;BME280;12510;56.468;-3.004;2023-03-04T04:47:22;102033.31;;;12.32;53.93
24390;BME280;12510;56.468;-3.004;2023-03-04T04:49:48;102037.16;;;12.15;54.93
24390;BME280;12510;56.468;-3.004;2023-03-04T04:52:15;102048.03;;;11.36;56.32
24390;BME280;12510;56.468;-3.004;2023-03-04T04:54:41;102040.19;;;12.46;54.07
24390;BME280;12510;56.468;-3.004;2023-03-04T04:57:07;102042.31;;;12.65;53.28
24390;BME280;12510;56.468;-3.004;2023-03-04T04:59:34;102038.91;;;11.66;56.08
24390;BME280;12510;56.468;-3.004;2023-03-04T05:02:00;102040.72;;;12.02;55.42
24390;BME280;12510;56.468;-3.004;2023-03-04T05:04:27;102041.34;;;11.93;55.09
24390;BME280;12510;56.468;-3.004;2023-03-04T05:06:53;102040.00;;;11.87;54.66
24390;BME280;12510;56.468;-3.004;2023-03-04T05:09:20;102050.50;;;11.76;55.72
24390;BME280;12510;56.468;-3.004;2023-03-04T05:11:48;102046.69;;;11.80;54.95
24390;BME280;12510;56.468;-3.004;2023-03-04T05:14:15;102043.59;;;11.99;53.91
24390;BME280;12510;56.468;-3.004;2023-03-04T05:16:41;102057.25;;;11.54;55.76
24390;BME280;12510;56.468;-3.004;2023-03-04T05:19:08;102055.78;;;11.50;56.07
24390;BME280;12510;56.468;-3.004;2023-03-04T05:21:34;102061.41;;;11.46;56.46
24390;BME280;12510;56.468;-3.004;2023-03-04T05:24:01;102057.94;;;11.32;56.84
24390;BME280;12510;56.468;-3.004;2023-03-04T05:26:27;102062.47;;;11.17;57.36
24390;BME280;12510;56.468;-3.004;2023-03-04T05:28:53;102054.94;;;11.63;55.74
24390;BME280;12510;56.468;-3.004;2023-03-04T05:31:20;102061.41;;;11.33;56.05
24390;BME280;12510;56.468;-3.004;2023-03-04T05:33:46;102063.09;;;11.21;56.65
24390;BME280;12510;56.468;-3.004;2023-03-04T05:36:13;102052.34;;;12.00;53.87
24390;BME280;12510;56.468;-3.004;2023-03-04T05:38:39;102047.97;;;11.62;54.09
24390;BME280;12510;56.468;-3.004;2023-03-04T05:41:06;102044.63;;;11.84;53.81
24390;BME280;12510;56.468;-3.004;2023-03-04T05:43:33;102041.28;;;11.82;53.58
24390;BME280;12510;56.468;-3.004;2023-03-04T05:46:02;102037.09;;;11.66;53.45
24390;BME280;12510;56.468;-3.004;2023-03-04T05:48:29;102045.41;;;10.57;56.57
24390;BME280;12510;56.468;-3.004;2023-03-04T05:50:57;102051.66;;;10.82;56.67
24390;BME280;12510;56.468;-3.004;2023-03-04T05:53:24;102049.19;;;10.53;58.06
24390;BME280;12510;56.468;-3.004;2023-03-04T05:55:51;102042.13;;;11.06;56.54
24390;BME280;12510;56.468;-3.004;2023-03-04T05:58:18;102044.63;;;11.08;56.12
24390;BME280;12510;56.468;-3.004;2023-03-04T06:00:44;102039.97;;;11.12;55.69
24390;BME280;12510;56.468;-3.004;2023-03-04T06:03:15;102052.59;;;10.81;56.54
24390;BME280;12510;56.468;-3.004;2023-03-04T06:05:42;102047.38;;;10.94;56.70
24390;BME280;12510;56.468;-3.004;2023-03-04T06:08:10;102052.28;;;10.60;57.79
24390;BME280;12510;56.468;-3.004;2023-03-04T06:10:39;102047.47;;;10.92;56.98
24390;BME280;12510;56.468;-3.004;2023-03-04T06:13:06;102045.25;;;10.86;56.78
24390;BME280;12510;56.468;-3.004;2023-03-04T06:15:33;102046.22;;;10.98;56.53
24390;BME280;12510;56.468;-3.004;2023-03-04T06:18:00;102047.78;;;11.26;55.02
24390;BME280;12510;56.468;-3.004;2023-03-04T06:20:26;102044.00;;;11.04;56.65
24390;BME280;12510;56.468;-3.004;2023-03-04T06:22:53;102038.38;;;11.48;55.22
24390;BME280;12510;56.468;-3.004;2023-03-04T06:25:19;102037.72;;;11.70;53.52
24390;BME280;12510;56.468;-3.004;2023-03-04T06:27:46;102046.66;;;11.17;55.08
24390;BME280;12510;56.468;-3.004;2023-03-04T06:30:13;102059.19;;;10.88;56.25
24390;BME280;12510;56.468;-3.004;2023-03-04T06:32:39;102047.56;;;10.78;55.64
24390;BME280;12510;56.468;-3.004;2023-03-04T06:35:10;102051.63;;;10.56;56.67
24390;BME280;12510;56.468;-3.004;2023-03-04T06:37:37;102050.06;;;10.12;58.10
24390;BME280;12510;56.468;-3.004;2023-03-04T06:40:04;102052.00;;;10.22;58.00
24390;BME280;12510;56.468;-3.004;2023-03-04T06:42:30;102055.56;;;9.94;59.18
24390;BME280;12510;56.468;-3.004;2023-03-04T06:44:57;102045.16;;;10.47;57.52
24390;BME280;12510;56.468;-3.004;2023-03-04T06:47:23;102048.91;;;10.16;58.49
24390;BME280;12510;56.468;-3.004;2023-03-04T06:49:50;102056.03;;;10.28;58.12
24390;BME280;12510;56.468;-3.004;2023-03-04T06:52:17;102050.09;;;10.24;57.16
24390;BME280;12510;56.468;-3.004;2023-03-04T06:54:44;102059.47;;;10.43;56.90
24390;BME280;12510;56.468;-3.004;2023-03-04T06:57:10;102057.16;;;10.24;57.82
24390;BME280;12510;56.468;-3.004;2023-03-04T06:59:39;102048.38;;;10.38;57.75
24390;BME280;12510;56.468;-3.004;2023-03-04T07:02:05;102055.84;;;10.71;56.53
24390;BME280;12510;56.468;-3.004;2023-03-04T07:04:32;102053.88;;;10.35;56.48
24390;BME280;12510;56.468;-3.004;2023-03-04T07:06:58;102063.50;;;10.49;56.74
24390;BME280;12510;56.468;-3.004;2023-03-04T07:09:25;102062.81;;;10.60;56.80
24390;BME280;12510;56.468;-3.004;2023-03-04T07:11:51;102066.53;;;10.43;57.56
24390;BME280;12510;56.468;-3.004;2023-03-04T07:14:18;102077.41;;;10.51;57.76
24390;BME280;12510;56.468;-3.004;2023-03-04T07:16:44;102068.97;;;10.31;58.32
24390;BME280;12510;56.468;-3.004;2023-03-04T07:19:11;102070.41;;;10.64;58.10
24390;BME280;12510;56.468;-3.004;2023-03-04T07:21:37;102061.94;;;10.59;58.11
24390;BME280;12510;56.468;-3.004;2023-03-04T07:24:04;102061.28;;;10.83;57.88
24390;BME280;12510;56.468;-3.004;2023-03-04T07:26:30;102052.63;;;11.58;55.93
24390;BME280;12510;56.468;-3.004;2023-03-04T07:28:57;102058.00;;;11.56;55.62
24390;BME280;12510;56.468;-3.004;2023-03-04T07:31:28;102051.94;;;12.41;53.54
24390;BME280;12510;56.468;-3.004;2023-03-04T07:33:57;102052.78;;;12.66;53.23
24390;BME280;12510;56.468;-3.004;2023-03-04T07:36:24;102053.91;;;12.51;53.38
24390;BME280;12510;56.468;-3.004;2023-03-04T07:38:51;102043.00;;;13.14;52.63
24390;BME280;12510;56.468;-3.004;2023-03-04T07:41:21;102047.19;;;12.94;51.01
24390;BME280;12510;56.468;-3.004;2023-03-04T07:43:47;102057.16;;;12.54;52.76
24390;BME280;12510;56.468;-3.004;2023-03-04T07:46:14;102061.66;;;12.65;53.85
24390;BME280;12510;56.468;-3.004;2023-03-04T07:48:41;102060.06;;;12.51;52.51
24390;BME280;12510;56.468;-3.004;2023-03-04T07:53:37;102056.53;;;12.15;53.67
24390;BME280;12510;56.468;-3.004;2023-03-04T07:56:06;102046.53;;;12.67;53.28
24390;BME280;12510;56.468;-3.004;2023-03-04T07:58:33;102048.75;;;12.01;54.15
24390;BME280;12510;56.468;-3.004;2023-03-04T08:00:59;102040.41;;;11.94;55.17
24390;BME280;12510;56.468;-3.004;2023-03-04T08:03:27;102053.88;;;12.75;54.11
24390;BME280;12510;56.468;-3.004;2023-03-04T08:05:54;102042.69;;;12.12;53.89
24390;BME280;12510;56.468;-3.004;2023-03-04T08:08:21;102050.06;;;12.55;54.00
24390;BME280;12510;56.468;-3.004;2023-03-04T08:10:47;102049.72;;;12.95;52.36
24390;BME280;12510;56.468;-3.004;2023-03-04T08:13:14;102063.09;;;12.69;53.87
24390;BME280;12510;56.468;-3.004;2023-03-04T08:15:41;102062.03;;;12.72;52.95
24390;BME280;12510;56.468;-3.004;2023-03-04T08:18:07;102069.03;;;12.00;54.30
24390;BME280;12510;56.468;-3.004;2023-03-04T08:20:34;102064.03;;;13.04;54.82
24390;BME280;12510;56.468;-3.004;2023-03-04T08:23:01;102055.06;;;12.71;53.29
24390;BME280;12510;56.468;-3.004;2023-03-04T08:25:27;102060.69;;;12.66;54.37
24390;BME280;12510;56.468;-3.004;2023-03-04T08:27:54;102059.69;;;12.91;52.34
24390;BME280;12510;56.468;-3.004;2023-03-04T08:30:20;102064.66;;;12.61;54.23
24390;BME280;12510;56.468;-3.004;2023-03-04T08:32:47;102062.00;;;13.07;51.84
24390;BME280;12510;56.468;-3.004;2023-03-04T08:35:13;102064.56;;;14.00;51.96
24390;BME280;12510;56.468;-3.004;2023-03-04T08:37:40;102079.41;;;12.87;53.70
24390;BME280;12510;56.468;-3.004;2023-03-04T08:40:07;102067.56;;;13.16;52.99
24390;BME280;12510;56.468;-3.004;2023-03-04T08:42:33;102071.31;;;12.18;54.09
24390;BME280;12510;56.468;-3.004;2023-03-04T08:45:00;102062.03;;;13.75;51.88
24390;BME280;12510;56.468;-3.004;2023-03-04T08:47:26;102060.72;;;14.25;50.76
24390;BME280;12510;56.468;-3.004;2023-03-04T08:49:52;102051.69;;;14.28;49.57
24390;BME280;12510;56.468;-3.004;2023-03-04T08:52:19;102053.88;;;14.22;50.60
24390;BME280;12510;56.468;-3.004;2023-03-04T08:54:46;102067.03;;;13.46;51.88
24390;BME280;12510;56.468;-3.004;2023-03-04T08:57:13;102068.19;;;14.31;51.25
24390;BME280;12510;56.468;-3.004;2023-03-04T08:59:39;102069.38;;;15.44;49.11
24390;BME280;12510;56.468;-3.004;2023-03-04T09:02:06;102053.59;;;15.42;46.20
24390;BME280;12510;56.468;-3.004;2023-03-04T09:04:32;102061.19;;;14.41;48.90
24390;BME280;12510;56.468;-3.004;2023-03-04T09:06:58;102059.31;;;14.86;48.43
24390;BME280;12510;56.468;-3.004;2023-03-04T09:09:25;102053.72;;;14.35;48.46
24390;BME280;12510;56.468;-3.004;2023-03-04T09:11:51;102048.28;;;14.04;49.42
24390;BME280;12510;56.468;-3.004;2023-03-04T09:14:18;102055.53;;;14.67;50.00
24390;BME280;12510;56.468;-3.004;2023-03-04T09:16:44;102044.56;;;15.24;49.02
24390;BME280;12510;56.468;-3.004;2023-03-04T09:19:11;102047.78;;;14.75;49.68
24390;BME280;12510;56.468;-3.004;2023-03-04T09:21:37;102054.69;;;14.88;49.12
24390;BME280;12510;56.468;-3.004;2023-03-04T09:24:04;102035.91;;;15.63;46.77
24390;BME280;12510;56.468;-3.004;2023-03-04T09:26:30;102031.53;;;15.83;46.01
24390;BME280;12510;56.468;-3.004;2023-03-04T09:28:59;102035.22;;;16.60;45.91
24390;BME280;12510;56.468;-3.004;2023-03-04T09:31:26;102042.28;;;15.81;46.56
24390;BME280;12510;56.468;-3.004;2023-03-04T09:33:55;102048.50;;;16.11;47.08
24390;BME280;12510;56.468;-3.004;2023-03-04T09:36:22;102048.44;;;15.41;47.00
24390;BME280;12510;56.468;-3.004;2023-03-04T09:38:49;102038.53;;;15.84;46.34
24390;BME280;12510;56.468;-3.004;2023-03-04T09:41:21;102042.22;;;15.31;47.11
24390;BME280;12510;56.468;-3.004;2023-03-04T09:43:50;102044.31;;;16.18;46.69
24390;BME280;12510;56.468;-3.004;2023-03-04T09:46:39;102045.53;;;16.73;45.60
24390;BME280;12510;56.468;-3.004;2023-03-04T09:49:10;102030.56;;;15.84;44.87
24390;BME280;12510;56.468;-3.004;2023-03-04T09:57:37;102028.41;;;17.15;43.47
24390;BME280;12510;56.468;-3.004;2023-03-04T10:00:13;102024.53;;;17.65;42.84
24390;BME280;12510;56.468;-3.004;2023-03-04T10:05:23;102029.28;;;17.71;41.92
24390;BME280;12510;56.468;-3.004;2023-03-04T10:08:00;102043.50;;;17.52;43.69
24390;BME280;12510;56.468;-3.004;2023-03-04T10:10:35;102034.13;;;18.03;41.84
24390;BME280;12510;56.468;-3.004;2023-03-04T10:13:03;102046.00;;;17.63;43.24
24390;BME280;12510;56.468;-3.004;2023-03-04T10:15:38;102059.41;;;16.76;45.11
24390;BME280;12510;56.468;-3.004;2023-03-04T10:18:15;102067.81;;;17.01;45.64
24390;BME280;12510;56.468;-3.004;2023-03-04T10:21:13;102065.28;;;16.90;45.60
24390;BME280;12510;56.468;-3.004;2023-03-04T10:23:42;102068.47;;;17.51;45.26
24390;BME280;12510;56.468;-3.004;2023-03-04T10:26:14;102075.06;;;16.99;46.02
24390;BME280;12510;56.468;-3.004;2023-03-04T10:28:42;102081.94;;;16.53;46.36
24390;BME280;12510;56.468;-3.004;2023-03-04T10:31:26;102085.44;;;17.50;45.07
24390;BME280;12510;56.468;-3.004;2023-03-04T10:33:55;102076.06;;;17.73;45.01
24390;BME280;12510;56.468;-3.004;2023-03-04T10:39:00;102060.47;;;18.42;43.34
24390;BME280;12510;56.468;-3.004;2023-03-04T10:41:28;102058.34;;;18.46;42.40
24390;BME280;12510;56.468;-3.004;2023-03-04T10:46:53;102071.88;;;17.43;44.77
24390;BME280;12510;56.468;-3.004;2023-03-04T10:49:20;102072.69;;;16.86;45.69
24390;BME280;12510;56.468;-3.004;2023-03-04T10:51:49;102058.59;;;17.61;44.68
24390;BME280;12510;56.468;-3.004;2023-03-04T10:57:15;102068.50;;;17.03;46.34
24390;BME280;12510;56.468;-3.004;2023-03-04T11:00:18;102062.75;;;17.46;46.49
24390;BME280;12510;56.468;-3.004;2023-03-04T11:02:46;102047.00;;;17.24;45.63
24390;BME280;12510;56.468;-3.004;2023-03-04T11:05:24;102046.63;;;17.00;46.11
24390;BME280;12510;56.468;-3.004;2023-03-04T11:13:15;102030.19;;;17.52;44.29
24390;BME280;12510;56.468;-3.004;2023-03-04T11:15:59;102031.97;;;17.61;45.87
24390;BME280;12510;56.468;-3.004;2023-03-04T11:18:46;102018.19;;;18.92;43.01
24390;BME280;12510;56.468;-3.004;2023-03-04T11:21:20;102006.00;;;18.27;43.71
24390;BME280;12510;56.468;-3.004;2023-03-04T11:24:00;102013.25;;;18.35;44.27
24390;BME280;12510;56.468;-3.004;2023-03-04T11:26:33;101999.91;;;19.99;41.94
24390;BME280;12510;56.468;-3.004;2023-03-04T11:37:05;101983.69;;;18.28;42.63
24390;BME280;12510;56.468;-3.004;2023-03-04T11:39:40;101979.25;;;17.37;44.02
24390;BME280;12510;56.468;-3.004;2023-03-04T11:42:36;101985.63;;;18.62;43.44
24390;BME280;12510;56.468;-3.004;2023-03-04T11:45:16;101983.09;;;18.34;43.40
24390;BME280;12510;56.468;-3.004;2023-03-04T11:50:28;101977.47;;;18.19;43.83
24390;BME280;12510;56.468;-3.004;2023-03-04T11:53:03;101980.78;;;18.39;43.82
24390;BME280;12510;56.468;-3.004;2023-03-04T11:58:39;101980.44;;;18.61;42.27
24390;BME280;12510;56.468;-3.004;2023-03-04T12:04:16;101984.28;;;17.86;44.71
24390;BME280;12510;56.468;-3.004;2023-03-04T12:07:07;101971.38;;;18.80;42.67
24390;BME280;12510;56.468;-3.004;2023-03-04T12:09:56;101971.81;;;18.93;41.75
24390;BME280;12510;56.468;-3.004;2023-03-04T12:12:50;101961.97;;;19.36;40.71
24390;BME280;12510;56.468;-3.004;2023-03-04T12:21:08;101954.75;;;18.59;41.95
24390;BME280;12510;56.468;-3.004;2023-03-04T12:32:15;101951.88;;;18.53;42.00
24390;BME280;12510;56.468;-3.004;2023-03-04T12:35:41;101947.53;;;18.78;41.13
24390;BME280;12510;56.468;-3.004;2023-03-04T12:54:55;101921.56;;;18.54;41.32
24390;BME280;12510;56.468;-3.004;2023-03-04T12:57:25;101926.84;;;19.06;40.66
24390;BME280;12510;56.468;-3.004;2023-03-04T13:03:11;101931.50;;;18.25;42.61
24390;BME280;12510;56.468;-3.004;2023-03-04T13:05:55;101929.72;;;18.87;41.75
24390;BME280;12510;56.468;-3.004;2023-03-04T13:16:50;101897.97;;;18.75;41.31
24390;BME280;12510;56.468;-3.004;2023-03-04T13:25:39;101878.84;;;19.39;40.16
24390;BME280;12510;56.468;-3.004;2023-03-04T13:43:41;101867.25;;;19.06;40.54
24390;BME280;12510;56.468;-3.004;2023-03-04T13:59:31;101858.09;;;19.17;40.80
24390;BME280;12510;56.468;-3.004;2023-03-04T14:04:38;101851.00;;;20.16;40.14
24390;BME280;12510;56.468;-3.004;2023-03-04T14:07:35;101847.03;;;20.52;38.29
24390;BME280;12510;56.468;-3.004;2023-03-04T14:12:38;101833.81;;;19.86;39.24
24390;BME280;12510;56.468;-3.004;2023-03-04T14:17:39;101823.25;;;20.65;37.63
24390;BME280;12510;56.468;-3.004;2023-03-04T14:20:30;101823.94;;;19.62;39.14
24390;BME280;12510;56.468;-3.004;2023-03-04T14:23:00;101813.25;;;20.59;38.08
24390;BME280;12510;56.468;-3.004;2023-03-04T14:25:29;101819.56;;;20.10;39.18
24390;BME280;12510;56.468;-3.004;2023-03-04T14:28:12;101802.84;;;20.72;38.46
24390;BME280;12510;56.468;-3.004;2023-03-04T14:30:40;101789.56;;;21.10;38.08
24390;BME280;12510;56.468;-3.004;2023-03-04T14:33:13;101798.50;;;20.63;38.44
24390;BME280;12510;56.468;-3.004;2023-03-04T14:35:46;101800.16;;;20.64;38.20
24390;BME280;12510;56.468;-3.004;2023-03-04T14:40:49;101789.53;;;20.87;38.18
24390;BME280;12510;56.468;-3.004;2023-03-04T14:43:19;101792.72;;;19.87;38.74
24390;BME280;12510;56.468;-3.004;2023-03-04T14:45:49;101796.06;;;19.48;39.74
24390;BME280;12510;56.468;-3.004;2023-03-04T14:48:23;101795.56;;;19.36;39.65
24390;BME280;12510;56.468;-3.004;2023-03-04T14:50:52;101786.34;;;21.38;38.41
24390;BME280;12510;56.468;-3.004;2023-03-04T14:53:22;101786.94;;;20.63;38.63
24390;BME280;12510;56.468;-3.004;2023-03-04T14:56:07;101774.25;;;20.65;37.83
24390;BME280;12510;56.468;-3.004;2023-03-04T14:58:50;101787.41;;;21.75;37.43
24390;BME280;12510;56.468;-3.004;2023-03-04T15:04:03;101776.56;;;20.68;38.43
24390;BME280;12510;56.468;-3.004;2023-03-04T15:06:38;101754.00;;;20.93;37.63